Time;durP1;ratioP1;P1;durP2;ratioP2;P2;SDS_P1;SDS_P2;PMS_P1;PMS_P2;Temp;Humidity;BMP_temperature;BMP_pressure;BME280_temperature;BME280_humidity;BME280_pressure;Samples;Min_cycle;Max_cycle;Signal;HPM_P1;HPM_P2
2022/01/09 00:00:16;;;;;;;;;43.25;34.75;;;;;;;;4915450;28;51310;-52
2022/01/09 00:03:00;;;;;;;;;45.00;34.75;;;;;;;;4916013;28;51245;-50
2022/01/09 00:05:44;;;;;;;;;44.25;32.25;;;;;;;;4912026;28;51511;-49
2022/01/09 00:08:29;;;;;;;;;47.25;36.00;;;;;;;;4912801;28;51266;-50
2022/01/09 00:11:15;;;;;;;;;43.75;35.75;;;;;;;;4908928;28;51113;-46
2022/01/09 00:13:59;;;;;;;;;47.25;33.75;;;;;;;;4918363;28;51197;-50
2022/01/09 00:16:46;;;;;;;;;51.75;37.50;;;;;;;;4915726;28;52230;-50
2022/01/09 00:19:30;;;;;;;;;46.50;35.00;;;;;;;;4912106;28;51189;-46
2022/01/09 00:22:17;;;;;;;;;52.00;37.25;;;;;;;;4913451;28;51206;-48
2022/01/09 00:25:28;;;;;;;;;45.50;34.50;;;;;;;;4918912;28;51169;-50
2022/01/09 00:28:12;;;;;;;;;45.50;38.25;;;;;;;;4920922;28;51118;-52
2022/01/09 00:30:56;;;;;;;;;47.50;34.75;;;;;;;;4920872;28;51458;-47
2022/01/09 00:33:41;;;;;;;;;47.50;35.00;;;;;;;;4918371;28;51070;-48
2022/01/09 00:36:25;;;;;;;;;45.75;36.00;;;;;;;;4912824;28;51127;-46
2022/01/09 00:39:10;;;;;;;;;44.50;33.50;;;;;;;;4907204;28;51233;-48
2022/01/09 00:41:54;;;;;;;;;48.50;36.25;;;;;;;;4907882;28;51098;-50
2022/01/09 00:44:38;;;;;;;;;43.00;34.00;;;;;;;;4908761;28;51139;-48
2022/01/09 00:47:23;;;;;;;;;41.00;34.25;;;;;;;;4916090;28;51701;-52
2022/01/09 00:50:08;;;;;;;;;44.25;33.75;;;;;;;;4916518;28;51657;-51
2022/01/09 00:52:52;;;;;;;;;45.00;33.50;;;;;;;;4916465;28;51140;-48
2022/01/09 00:55:36;;;;;;;;;47.00;35.50;;;;;;;;4912298;28;51135;-50
2022/01/09 00:58:21;;;;;;;;;38.50;28.25;;;;;;;;4907521;28;51401;-51
2022/01/09 01:01:05;;;;;;;;;43.00;33.75;;;;;;;;4911786;28;51177;-51
2022/01/09 01:03:50;;;;;;;;;42.50;33.50;;;;;;;;4911673;28;51252;-51
2022/01/09 01:06:34;;;;;;;;;44.75;35.00;;;;;;;;4920384;28;51523;-46
2022/01/09 01:09:23;;;;;;;;;44.50;31.75;;;;;;;;4918120;28;51327;-47
2022/01/09 01:12:07;;;;;;;;;46.50;37.50;;;;;;;;4915663;28;51346;-47
2022/01/09 01:14:52;;;;;;;;;38.25;33.00;;;;;;;;4914413;28;52569;-46
2022/01/09 01:17:36;;;;;;;;;47.25;36.50;;;;;;;;4914307;28;51056;-45
2022/01/09 01:20:22;;;;;;;;;45.00;34.50;;;;;;;;4910114;28;51531;-48
2022/01/09 01:23:06;;;;;;;;;45.50;35.25;;;;;;;;4912147;28;51205;-50
2022/01/09 01:25:52;;;;;;;;;50.00;38.50;;;;;;;;4916890;28;51276;-49
2022/01/09 01:28:36;;;;;;;;;52.00;37.25;;;;;;;;4918219;28;51187;-47
2022/01/09 01:31:21;;;;;;;;;49.50;37.75;;;;;;;;4919262;28;51435;-51
2022/01/09 01:34:05;;;;;;;;;46.50;35.25;;;;;;;;4914217;28;51174;-47
2022/01/09 01:39:53;;;;;;;;;39.25;31.75;;;;;;;;4911953;28;51134;-48
2022/01/09 01:42:37;;;;;;;;;48.25;37.75;;;;;;;;4919982;28;51178;-48
2022/01/09 01:45:21;;;;;;;;;44.25;34.75;;;;;;;;4918296;28;51215;-50
2022/01/09 01:48:06;;;;;;;;;46.50;36.75;;;;;;;;4917159;28;51704;-49
2022/01/09 01:50:51;;;;;;;;;50.50;37.00;;;;;;;;4915832;28;51272;-50
2022/01/09 01:53:35;;;;;;;;;48.50;35.75;;;;;;;;4915716;28;51080;-48
2022/01/09 01:56:20;;;;;;;;;49.00;38.00;;;;;;;;4934594;28;51232;-47
2022/01/09 01:59:05;;;;;;;;;48.75;35.50;;;;;;;;4914703;28;51476;-44
2022/01/09 02:01:49;;;;;;;;;51.50;39.50;;;;;;;;4918559;28;51099;-46
2022/01/09 02:04:34;;;;;;;;;50.75;38.50;;;;;;;;4915064;28;51659;-48
2022/01/09 02:07:18;;;;;;;;;46.50;37.50;;;;;;;;4916444;28;51119;-54
2022/01/09 02:10:07;;;;;;;;;54.50;40.75;;;;;;;;4911978;28;51554;-50
2022/01/09 02:12:55;;;;;;;;;48.00;36.25;;;;;;;;4909390;28;51263;-50
2022/01/09 02:15:45;;;;;;;;;49.25;36.25;;;;;;;;4911236;28;53196;-46
2022/01/09 02:18:30;;;;;;;;;47.75;36.25;;;;;;;;4917151;28;51233;-49
2022/01/09 02:21:15;;;;;;;;;47.75;36.00;;;;;;;;4926102;28;51336;-47
2022/01/09 02:23:59;;;;;;;;;48.75;38.50;;;;;;;;4868105;28;51390;-50
2022/01/09 02:26:43;;;;;;;;;50.00;41.00;;;;;;;;4920795;28;51722;-53
2022/01/09 02:29:28;;;;;;;;;46.50;34.50;;;;;;;;4922474;28;51099;-50
2022/01/09 02:32:12;;;;;;;;;46.25;35.75;;;;;;;;4922636;28;51173;-51
2022/01/09 02:34:57;;;;;;;;;49.00;38.25;;;;;;;;4922938;28;51397;-50
2022/01/09 02:37:41;;;;;;;;;51.00;39.00;;;;;;;;4923234;28;51733;-49
2022/01/09 02:40:25;;;;;;;;;47.50;39.00;;;;;;;;4923009;28;51167;-46
2022/01/09 02:43:10;;;;;;;;;47.50;38.50;;;;;;;;4923104;28;51171;-50
2022/01/09 02:46:05;;;;;;;;;47.75;38.50;;;;;;;;4926600;28;52814;-49
2022/01/09 02:48:51;;;;;;;;;47.50;37.25;;;;;;;;4941606;28;51263;-51
2022/01/09 02:51:36;;;;;;;;;47.00;37.00;;;;;;;;4941837;28;51114;-45
2022/01/09 02:57:23;;;;;;;;;48.25;36.50;;;;;;;;4942153;28;51193;-50
2022/01/09 03:00:09;;;;;;;;;48.25;38.25;;;;;;;;4942217;28;51413;-51
2022/01/09 03:02:54;;;;;;;;;50.00;39.00;;;;;;;;4941984;28;51121;-52
2022/01/09 03:05:38;;;;;;;;;52.00;39.75;;;;;;;;4941321;28;51169;-47
2022/01/09 03:08:22;;;;;;;;;51.75;40.75;;;;;;;;4941730;28;51134;-49
2022/01/09 03:11:07;;;;;;;;;53.75;41.50;;;;;;;;4941793;28;51074;-50
2022/01/09 03:13:51;;;;;;;;;53.00;42.25;;;;;;;;4941590;28;51619;-45
2022/01/09 03:16:35;;;;;;;;;52.75;41.50;;;;;;;;4941344;28;51109;-47
2022/01/09 03:19:20;;;;;;;;;53.50;41.25;;;;;;;;4941342;28;51173;-49
2022/01/09 03:22:04;;;;;;;;;53.00;40.50;;;;;;;;4941533;28;51113;-46
2022/01/09 03:24:49;;;;;;;;;54.25;41.50;;;;;;;;4941317;28;51245;-51
2022/01/09 03:27:33;;;;;;;;;53.75;43.50;;;;;;;;4941127;28;51126;-50
2022/01/09 03:30:18;;;;;;;;;54.75;42.00;;;;;;;;4941105;28;51070;-49
2022/01/09 03:33:03;;;;;;;;;57.75;45.50;;;;;;;;4941448;28;51110;-49
2022/01/09 03:35:47;;;;;;;;;53.75;42.50;;;;;;;;4939993;28;51520;-52
2022/01/09 03:38:32;;;;;;;;;53.00;42.50;;;;;;;;4925048;28;51166;-50
2022/01/09 03:41:16;;;;;;;;;51.75;41.25;;;;;;;;4921563;28;51560;-46
2022/01/09 03:44:01;;;;;;;;;54.25;39.50;;;;;;;;4921912;28;51091;-47
2022/01/09 03:46:45;;;;;;;;;47.00;39.75;;;;;;;;4922293;28;51169;-50
2022/01/09 03:49:33;;;;;;;;;50.00;39.75;;;;;;;;4921347;28;51478;-50
2022/01/09 03:52:18;;;;;;;;;53.00;39.25;;;;;;;;4921965;28;51718;-49
2022/01/09 03:55:03;;;;;;;;;55.50;42.75;;;;;;;;4917495;28;51169;-48
2022/01/09 03:57:48;;;;;;;;;51.75;41.75;;;;;;;;4940696;28;51385;-47
2022/01/09 04:00:33;;;;;;;;;50.25;40.25;;;;;;;;4940670;28;51531;-47
2022/01/09 04:03:17;;;;;;;;;51.25;40.00;;;;;;;;4940766;28;51135;-46
2022/01/09 04:06:02;;;;;;;;;55.50;42.00;;;;;;;;4940517;28;51751;-47
2022/01/09 04:08:47;;;;;;;;;48.75;40.00;;;;;;;;4940707;28;51265;-46
2022/01/09 04:11:37;;;;;;;;;54.75;41.75;;;;;;;;4941135;28;51035;-45
2022/01/09 04:14:21;;;;;;;;;55.75;43.00;;;;;;;;4940101;28;51142;-50
2022/01/09 04:17:09;;;;;;;;;53.75;42.50;;;;;;;;4940967;28;52424;-47
2022/01/09 04:19:53;;;;;;;;;58.25;43.00;;;;;;;;4940220;28;51130;-47
2022/01/09 04:22:41;;;;;;;;;58.75;44.25;;;;;;;;4940859;28;51305;-46
2022/01/09 04:25:26;;;;;;;;;56.00;45.25;;;;;;;;4939613;28;51133;-49
2022/01/09 04:28:11;;;;;;;;;56.00;44.50;;;;;;;;4940180;28;51266;-47
2022/01/09 04:30:55;;;;;;;;;58.25;43.25;;;;;;;;4939282;28;51716;-46
2022/01/09 04:33:41;;;;;;;;;59.00;44.00;;;;;;;;4940156;28;51131;-52
2022/01/09 04:36:26;;;;;;;;;59.75;45.25;;;;;;;;4940096;28;51070;-50
2022/01/09 04:39:10;;;;;;;;;60.00;46.00;;;;;;;;4927873;28;51122;-48
2022/01/09 04:41:55;;;;;;;;;62.75;45.75;;;;;;;;4913252;28;51573;-49
2022/01/09 04:44:40;;;;;;;;;57.50;45.50;;;;;;;;4921079;28;51139;-53
2022/01/09 04:47:25;;;;;;;;;61.00;46.25;;;;;;;;4901812;28;51403;-44
2022/01/09 04:50:13;;;;;;;;;65.25;48.00;;;;;;;;4921050;28;51655;-47
2022/01/09 04:53:01;;;;;;;;;61.75;47.50;;;;;;;;4921092;28;51108;-48
2022/01/09 04:55:49;;;;;;;;;61.75;47.75;;;;;;;;4921333;28;51646;-51
2022/01/09 04:58:33;;;;;;;;;57.00;45.75;;;;;;;;4920833;28;51089;-47
2022/01/09 05:01:17;;;;;;;;;60.00;45.50;;;;;;;;4920925;28;51137;-48
2022/01/09 05:04:02;;;;;;;;;62.25;47.25;;;;;;;;4921002;28;51121;-53
2022/01/09 05:06:47;;;;;;;;;61.25;46.00;;;;;;;;4921401;28;51138;-47
2022/01/09 05:09:31;;;;;;;;;61.00;48.75;;;;;;;;4920914;28;51126;-49
2022/01/09 05:12:16;;;;;;;;;63.75;48.00;;;;;;;;4921674;28;51027;-45
2022/01/09 05:15:00;;;;;;;;;62.75;48.75;;;;;;;;4920982;28;51130;-47
2022/01/09 05:17:44;;;;;;;;;61.50;48.00;;;;;;;;4921141;28;51003;-47
2022/01/09 05:20:29;;;;;;;;;60.00;47.00;;;;;;;;4920660;28;51104;-51
2022/01/09 05:23:13;;;;;;;;;58.00;44.50;;;;;;;;4920347;28;51064;-50
2022/01/09 05:25:57;;;;;;;;;61.25;45.75;;;;;;;;4921353;28;51083;-47
2022/01/09 05:28:42;;;;;;;;;60.25;45.25;;;;;;;;4920923;28;51109;-51
2022/01/09 05:31:26;;;;;;;;;56.00;46.50;;;;;;;;4920364;28;51704;-49
2022/01/09 05:34:11;;;;;;;;;57.50;46.75;;;;;;;;4920784;28;51086;-51
2022/01/09 05:36:55;;;;;;;;;60.00;47.00;;;;;;;;4921210;28;51214;-46
2022/01/09 05:39:39;;;;;;;;;54.00;45.50;;;;;;;;4920105;28;51361;-47
2022/01/09 05:42:24;;;;;;;;;56.75;46.50;;;;;;;;4920951;28;51624;-43
2022/01/09 05:45:09;;;;;;;;;56.00;43.75;;;;;;;;4921109;28;51597;-46
2022/01/09 05:47:53;;;;;;;;;63.75;49.75;;;;;;;;4924266;28;51153;-47
2022/01/09 05:50:37;;;;;;;;;62.25;49.00;;;;;;;;4924123;28;51154;-50
2022/01/09 05:53:22;;;;;;;;;68.75;54.25;;;;;;;;4924198;28;51205;-48
2022/01/09 05:56:06;;;;;;;;;77.00;65.75;;;;;;;;4924182;28;51588;-48
2022/01/09 05:58:51;;;;;;;;;80.75;67.25;;;;;;;;4923740;28;51175;-45
2022/01/09 06:01:35;;;;;;;;;97.50;85.75;;;;;;;;4932387;28;51128;-49
2022/01/09 06:04:19;;;;;;;;;105.00;89.50;;;;;;;;4942987;28;51098;-48
2022/01/09 06:07:04;;;;;;;;;112.25;95.75;;;;;;;;4942840;28;50987;-46
2022/01/09 06:09:48;;;;;;;;;116.25;106.25;;;;;;;;4941478;28;51423;-50
2022/01/09 06:12:33;;;;;;;;;102.75;89.25;;;;;;;;4942492;28;52266;-49
2022/01/09 06:15:18;;;;;;;;;99.25;87.00;;;;;;;;4943086;28;51168;-47
2022/01/09 06:18:02;;;;;;;;;102.75;88.25;;;;;;;;4942753;28;51237;-47
2022/01/09 06:20:47;;;;;;;;;110.25;95.75;;;;;;;;4942769;28;51517;-48
2022/01/09 06:23:31;;;;;;;;;97.00;84.50;;;;;;;;4942578;28;51447;-49
2022/01/09 06:26:16;;;;;;;;;96.25;78.75;;;;;;;;4942722;28;51209;-49
2022/01/09 06:29:00;;;;;;;;;102.50;95.25;;;;;;;;4942070;28;51441;-48
2022/01/09 06:31:45;;;;;;;;;99.00;87.75;;;;;;;;4942339;28;51111;-46
2022/01/09 06:34:29;;;;;;;;;102.75;92.50;;;;;;;;4942803;28;51461;-49
2022/01/09 06:37:14;;;;;;;;;101.25;90.00;;;;;;;;4941928;28;51058;-45
2022/01/09 06:39:58;;;;;;;;;82.50;71.75;;;;;;;;4942618;28;50984;-45
2022/01/09 06:42:43;;;;;;;;;75.25;60.50;;;;;;;;4942484;28;51103;-48
2022/01/09 06:45:27;;;;;;;;;74.25;63.25;;;;;;;;4942783;28;51214;-47
2022/01/09 06:48:11;;;;;;;;;75.00;62.75;;;;;;;;4941996;28;51173;-46
2022/01/09 06:50:56;;;;;;;;;75.25;63.00;;;;;;;;4942722;28;51114;-46
2022/01/09 06:53:40;;;;;;;;;78.00;68.25;;;;;;;;4942138;28;51502;-46
2022/01/09 06:56:25;;;;;;;;;76.75;65.50;;;;;;;;4942066;28;51190;-46
2022/01/09 06:59:09;;;;;;;;;79.50;68.50;;;;;;;;4941232;28;51099;-46
2022/01/09 07:01:54;;;;;;;;;78.75;70.00;;;;;;;;4941775;28;51591;-45
2022/01/09 07:04:38;;;;;;;;;80.00;69.25;;;;;;;;4942376;28;51137;-55
2022/01/09 07:07:23;;;;;;;;;77.75;62.00;;;;;;;;4941465;28;53444;-52
2022/01/09 07:10:08;;;;;;;;;75.00;58.75;;;;;;;;4941992;28;51637;-51
2022/01/09 07:12:52;;;;;;;;;70.00;57.25;;;;;;;;4941650;28;51149;-51
2022/01/09 07:15:37;;;;;;;;;73.75;60.75;;;;;;;;4942062;28;51174;-52
2022/01/09 07:18:21;;;;;;;;;111.75;100.75;;;;;;;;4941227;28;51562;-47
2022/01/09 07:21:05;;;;;;;;;75.25;63.00;;;;;;;;4941821;28;50975;-44
2022/01/09 07:23:50;;;;;;;;;71.50;57.50;;;;;;;;4941539;28;51201;-51
2022/01/09 07:26:34;;;;;;;;;72.25;57.50;;;;;;;;4941611;28;51023;-49
2022/01/09 07:29:19;;;;;;;;;112.50;100.00;;;;;;;;4940985;28;51265;-51
2022/01/09 07:32:03;;;;;;;;;79.75;70.50;;;;;;;;4941023;28;51173;-45
2022/01/09 07:34:48;;;;;;;;;76.00;64.00;;;;;;;;4941029;28;51660;-49
2022/01/09 07:37:32;;;;;;;;;67.50;54.50;;;;;;;;4940500;28;51627;-48
2022/01/09 07:40:17;;;;;;;;;69.25;56.50;;;;;;;;4922660;28;51413;-49
2022/01/09 07:43:01;;;;;;;;;69.00;52.50;;;;;;;;4913102;28;51474;-50
2022/01/09 07:45:46;;;;;;;;;66.75;52.75;;;;;;;;4921706;28;51176;-51
2022/01/09 07:48:30;;;;;;;;;65.50;49.00;;;;;;;;4922045;28;51103;-48
2022/01/09 07:51:14;;;;;;;;;64.00;49.50;;;;;;;;4921807;28;51008;-49
2022/01/09 07:53:59;;;;;;;;;64.50;49.75;;;;;;;;4921429;28;51342;-48
2022/01/09 07:56:43;;;;;;;;;65.75;50.25;;;;;;;;4921884;28;51040;-49
2022/01/09 07:59:28;;;;;;;;;64.75;51.50;;;;;;;;4921187;28;51146;-47
2022/01/09 08:02:12;;;;;;;;;67.25;52.50;;;;;;;;4921372;28;51091;-50
2022/01/09 08:04:57;;;;;;;;;59.00;46.75;;;;;;;;4921242;28;51125;-49
2022/01/09 08:07:42;;;;;;;;;63.00;49.00;;;;;;;;4921345;28;51579;-49
2022/01/09 08:10:26;;;;;;;;;65.75;49.75;;;;;;;;4920588;28;51129;-49
2022/01/09 08:13:11;;;;;;;;;62.50;48.50;;;;;;;;4922002;28;51661;-45
2022/01/09 08:15:55;;;;;;;;;59.25;47.50;;;;;;;;4920844;28;52261;-53
2022/01/09 08:18:39;;;;;;;;;61.75;49.50;;;;;;;;4932206;28;62443;-49
2022/01/09 08:21:24;;;;;;;;;61.75;48.75;;;;;;;;4940153;28;51130;-47
2022/01/09 08:24:10;;;;;;;;;56.50;45.00;;;;;;;;4940047;28;51169;-47
2022/01/09 08:26:54;;;;;;;;;59.25;46.25;;;;;;;;4940040;28;51111;-48
2022/01/09 08:29:38;;;;;;;;;59.25;44.75;;;;;;;;4921117;28;51128;-51
2022/01/09 08:32:23;;;;;;;;;59.75;47.25;;;;;;;;4927614;28;51572;-48
2022/01/09 08:35:07;;;;;;;;;60.25;47.75;;;;;;;;4939645;28;51246;-50
2022/01/09 08:37:51;;;;;;;;;58.50;44.00;;;;;;;;4940073;28;51088;-49
2022/01/09 08:40:36;;;;;;;;;50.25;38.25;;;;;;;;4939852;28;51058;-49
2022/01/09 08:43:20;;;;;;;;;52.75;40.00;;;;;;;;4926871;28;52148;-51
2022/01/09 08:46:05;;;;;;;;;48.50;40.50;;;;;;;;4937865;28;51159;-50
2022/01/09 08:48:49;;;;;;;;;50.50;39.50;;;;;;;;4939363;28;51227;-45
2022/01/09 08:51:33;;;;;;;;;55.75;42.50;;;;;;;;4920410;28;51193;-49
2022/01/09 08:54:18;;;;;;;;;53.25;41.50;;;;;;;;4920585;28;51252;-48
2022/01/09 08:57:02;;;;;;;;;52.00;40.75;;;;;;;;4939778;28;51573;-51
2022/01/09 08:59:46;;;;;;;;;54.25;41.75;;;;;;;;4939610;28;51107;-49
2022/01/09 09:02:31;;;;;;;;;48.75;38.75;;;;;;;;4939760;28;51586;-49
2022/01/09 09:05:15;;;;;;;;;49.75;40.00;;;;;;;;4939622;28;51108;-49
2022/01/09 09:07:59;;;;;;;;;49.75;38.50;;;;;;;;4939174;28;51218;-54
2022/01/09 09:10:44;;;;;;;;;49.50;38.50;;;;;;;;4939727;28;51245;-54
2022/01/09 09:13:28;;;;;;;;;53.25;41.50;;;;;;;;4939582;28;51639;-49
2022/01/09 09:16:14;;;;;;;;;48.25;38.75;;;;;;;;4939444;28;51536;-52
2022/01/09 09:18:58;;;;;;;;;49.50;39.00;;;;;;;;4939603;28;51154;-46
2022/01/09 09:21:43;;;;;;;;;48.25;37.25;;;;;;;;4926806;28;51468;-46
2022/01/09 09:24:28;;;;;;;;;47.75;37.50;;;;;;;;4942299;28;51169;-48
2022/01/09 09:27:13;;;;;;;;;45.25;36.00;;;;;;;;4942503;28;51714;-50
2022/01/09 09:29:58;;;;;;;;;49.50;38.75;;;;;;;;4941141;28;51104;-53
2022/01/09 09:32:43;;;;;;;;;47.75;36.00;;;;;;;;4941465;28;51157;-49
2022/01/09 09:35:27;;;;;;;;;43.25;37.00;;;;;;;;4940866;28;51165;-49
2022/01/09 09:38:11;;;;;;;;;47.00;37.50;;;;;;;;4942691;28;51116;-51
2022/01/09 09:40:56;;;;;;;;;42.75;35.00;;;;;;;;4942300;28;51122;-53
2022/01/09 09:43:40;;;;;;;;;46.00;36.75;;;;;;;;4941989;28;51074;-50
2022/01/09 09:46:25;;;;;;;;;41.75;32.75;;;;;;;;4942194;28;51256;-50
2022/01/09 09:49:09;;;;;;;;;41.50;35.00;;;;;;;;4942113;28;51156;-48
2022/01/09 09:51:53;;;;;;;;;44.75;34.75;;;;;;;;4941256;28;51119;-52
2022/01/09 09:54:38;;;;;;;;;45.25;35.25;;;;;;;;4942397;28;51452;-50
2022/01/09 09:57:22;;;;;;;;;46.75;36.25;;;;;;;;4940868;28;51556;-51
2022/01/09 10:00:07;;;;;;;;;44.25;34.25;;;;;;;;4942153;28;51102;-52
2022/01/09 10:02:52;;;;;;;;;40.25;29.00;;;;;;;;4941654;28;51701;-54
2022/01/09 10:05:38;;;;;;;;;40.25;33.25;;;;;;;;4941859;28;51165;-48
2022/01/09 10:08:34;;;;;;;;;32.75;28.25;;;;;;;;4941802;28;52486;-54
2022/01/09 10:11:19;;;;;;;;;34.25;29.75;;;;;;;;4941585;28;51113;-49
2022/01/09 10:14:10;;;;;;;;;40.25;31.00;;;;;;;;4941678;28;51049;-49
2022/01/09 10:17:13;;;;;;;;;37.00;29.00;;;;;;;;4941325;28;51161;-50
2022/01/09 10:20:00;;;;;;;;;37.50;30.50;;;;;;;;4943106;28;51068;-48
2022/01/09 10:22:50;;;;;;;;;40.50;29.75;;;;;;;;4942845;28;51410;-51
2022/01/09 10:25:38;;;;;;;;;42.00;32.25;;;;;;;;4943014;28;51211;-49
2022/01/09 10:28:23;;;;;;;;;29.50;25.50;;;;;;;;4943015;28;51136;-48
2022/01/09 10:31:15;;;;;;;;;40.50;30.75;;;;;;;;4942748;28;51064;-52
2022/01/09 10:34:06;;;;;;;;;45.75;30.75;;;;;;;;4941675;28;51221;-50
2022/01/09 10:36:51;;;;;;;;;39.50;31.00;;;;;;;;4942619;28;51153;-46
2022/01/09 10:39:36;;;;;;;;;40.75;31.00;;;;;;;;4942863;28;51161;-46
2022/01/09 10:42:21;;;;;;;;;43.00;33.25;;;;;;;;4923531;28;51133;-52
2022/01/09 10:45:15;;;;;;;;;36.75;29.00;;;;;;;;4923305;28;51032;-50
2022/01/09 10:48:04;;;;;;;;;38.00;31.00;;;;;;;;4922860;28;51550;-53
2022/01/09 10:50:49;;;;;;;;;36.25;29.25;;;;;;;;4923301;28;51027;-48
2022/01/09 10:53:34;;;;;;;;;37.25;31.25;;;;;;;;4923337;28;51081;-48
2022/01/09 10:56:24;;;;;;;;;40.25;29.50;;;;;;;;4922901;28;51122;-49
2022/01/09 10:59:08;;;;;;;;;38.50;31.25;;;;;;;;4923313;28;51089;-50
2022/01/09 11:01:59;;;;;;;;;33.00;27.25;;;;;;;;4922972;28;51378;-47
2022/01/09 11:04:47;;;;;;;;;32.50;25.75;;;;;;;;4922992;28;51112;-49
2022/01/09 11:07:42;;;;;;;;;32.25;27.00;;;;;;;;4923039;28;51109;-49
2022/01/09 11:10:28;;;;;;;;;28.25;22.50;;;;;;;;4923237;28;51102;-54
2022/01/09 11:13:15;;;;;;;;;33.50;27.75;;;;;;;;4922581;28;51533;-47
2022/01/09 11:19:06;;;;;;;;;37.25;28.00;;;;;;;;4922773;28;51637;-52
2022/01/09 11:22:01;;;;;;;;;36.50;28.00;;;;;;;;4930937;28;51178;-52
2022/01/09 11:25:01;;;;;;;;;30.25;27.00;;;;;;;;4935457;28;51122;-49
2022/01/09 11:27:51;;;;;;;;;32.50;28.00;;;;;;;;4940517;28;51148;-51
2022/01/09 11:30:47;;;;;;;;;33.25;28.50;;;;;;;;4940727;28;51120;-52
2022/01/09 11:33:38;;;;;;;;;34.25;27.00;;;;;;;;4939955;28;51207;-48
2022/01/09 11:36:32;;;;;;;;;32.25;28.75;;;;;;;;4940530;28;51193;-50
2022/01/09 11:39:20;;;;;;;;;31.50;29.00;;;;;;;;4939961;28;51167;-51
2022/01/09 11:42:11;;;;;;;;;27.50;24.75;;;;;;;;4940400;28;51143;-50
2022/01/09 11:44:56;;;;;;;;;33.50;25.25;;;;;;;;4940319;28;51192;-50
2022/01/09 11:47:48;;;;;;;;;32.25;27.00;;;;;;;;4940103;28;51154;-50
2022/01/09 11:50:41;;;;;;;;;36.00;28.25;;;;;;;;4940549;28;51229;-52
2022/01/09 11:53:26;;;;;;;;;32.00;27.00;;;;;;;;4939835;28;51102;-49
2022/01/09 11:56:10;;;;;;;;;29.25;27.25;;;;;;;;4938640;28;51157;-49
2022/01/09 11:59:13;;;;;;;;;39.25;29.50;;;;;;;;4921243;28;51223;-47
2022/01/09 12:01:59;;;;;;;;;34.00;28.75;;;;;;;;4921727;28;51111;-48
2022/01/09 12:04:46;;;;;;;;;38.25;28.25;;;;;;;;4938329;28;51488;-48
2022/01/09 12:07:34;;;;;;;;;31.75;27.50;;;;;;;;4936795;28;51311;-45
2022/01/09 12:10:24;;;;;;;;;36.00;27.75;;;;;;;;4939002;28;53028;-48
2022/01/09 12:13:27;;;;;;;;;36.00;29.00;;;;;;;;4940084;28;51586;-45
2022/01/09 12:16:31;;;;;;;;;38.00;29.50;;;;;;;;4940147;28;51202;-49
2022/01/09 12:19:34;;;;;;;;;32.50;27.25;;;;;;;;4941065;28;51425;-48
2022/01/09 12:22:37;;;;;;;;;36.25;30.50;;;;;;;;4941222;28;51623;-48
2022/01/09 12:25:24;;;;;;;;;35.25;28.00;;;;;;;;4928229;28;51619;-47
2022/01/09 12:28:19;;;;;;;;;37.00;30.50;;;;;;;;4939574;28;51169;-46
2022/01/09 12:31:04;;;;;;;;;41.25;31.00;;;;;;;;4939338;28;51443;-46
2022/01/09 12:33:49;;;;;;;;;37.25;31.00;;;;;;;;4938804;28;51680;-47
2022/01/09 12:36:34;;;;;;;;;37.75;30.00;;;;;;;;4934463;28;51142;-46
2022/01/09 12:39:18;;;;;;;;;39.75;31.50;;;;;;;;4939480;28;51130;-46
2022/01/09 12:42:03;;;;;;;;;37.00;30.00;;;;;;;;4938798;28;51130;-46
2022/01/09 12:44:54;;;;;;;;;38.00;31.25;;;;;;;;4939148;28;51475;-46
2022/01/09 12:47:39;;;;;;;;;45.00;33.25;;;;;;;;4938882;28;51150;-46
2022/01/09 12:50:25;;;;;;;;;46.50;37.75;;;;;;;;4939032;28;51147;-49
2022/01/09 12:53:20;;;;;;;;;37.50;32.25;;;;;;;;4939059;28;51086;-49
2022/01/09 12:56:14;;;;;;;;;35.25;29.50;;;;;;;;4939577;28;51223;-47
2022/01/09 12:59:00;;;;;;;;;39.00;30.50;;;;;;;;4943271;28;51061;-46
2022/01/09 13:01:45;;;;;;;;;36.50;30.00;;;;;;;;4943142;28;51177;-49
2022/01/09 13:04:33;;;;;;;;;42.50;33.50;;;;;;;;4942294;28;51162;-50
2022/01/09 13:07:18;;;;;;;;;41.25;33.00;;;;;;;;4942670;28;51202;-46
2022/01/09 13:10:15;;;;;;;;;39.75;31.00;;;;;;;;4941198;28;51355;-45
2022/01/09 13:12:59;;;;;;;;;30.50;27.00;;;;;;;;4939843;28;51618;-45
2022/01/09 13:15:43;;;;;;;;;39.50;31.00;;;;;;;;4942739;28;51205;-50
2022/01/09 13:18:38;;;;;;;;;42.00;31.50;;;;;;;;4943053;28;51102;-46
2022/01/09 13:21:24;;;;;;;;;41.00;32.00;;;;;;;;4942315;28;51122;-45
2022/01/09 13:24:18;;;;;;;;;41.00;32.50;;;;;;;;4942805;28;51651;-46
2022/01/09 13:27:02;;;;;;;;;40.00;30.75;;;;;;;;4942483;28;51660;-48
2022/01/09 13:29:56;;;;;;;;;40.75;31.25;;;;;;;;4942921;28;51240;-48
2022/01/09 13:32:40;;;;;;;;;38.75;30.00;;;;;;;;4910906;28;51266;-48
2022/01/09 13:35:25;;;;;;;;;40.25;32.25;;;;;;;;4933139;28;52007;-45
2022/01/09 13:38:10;;;;;;;;;45.75;34.25;;;;;;;;4937195;28;51920;-51
2022/01/09 13:40:55;;;;;;;;;45.25;35.50;;;;;;;;4934382;28;51221;-46
2022/01/09 13:43:39;;;;;;;;;41.75;32.75;;;;;;;;4934208;28;51276;-47
2022/01/09 13:46:24;;;;;;;;;46.00;37.00;;;;;;;;4930862;28;51551;-47
2022/01/09 13:49:13;;;;;;;;;41.50;31.75;;;;;;;;4934012;28;51272;-47
2022/01/09 13:51:58;;;;;;;;;30.50;20.25;;;;;;;;4935273;28;51192;-49
2022/01/09 13:54:42;;;;;;;;;40.50;31.75;;;;;;;;4941396;28;51140;-47
2022/01/09 13:57:28;;;;;;;;;37.25;29.50;;;;;;;;4938275;28;51186;-48
2022/01/09 14:00:12;;;;;;;;;39.75;32.25;;;;;;;;4941594;28;51107;-50
2022/01/09 14:02:58;;;;;;;;;39.25;31.50;;;;;;;;4940157;28;51683;-44
2022/01/09 14:05:44;;;;;;;;;41.00;32.75;;;;;;;;4941874;28;51185;-48
2022/01/09 14:08:35;;;;;;;;;39.25;32.00;;;;;;;;4942569;28;51036;-52
2022/01/09 14:11:19;;;;;;;;;38.25;31.25;;;;;;;;4941521;28;51162;-49
2022/01/09 14:14:03;;;;;;;;;41.75;33.00;;;;;;;;4940878;28;51122;-49
2022/01/09 14:16:48;;;;;;;;;41.50;32.00;;;;;;;;4912665;28;55306;-49
2022/01/09 14:19:45;;;;;;;;;58.50;43.50;;;;;;;;4937999;28;51181;-49
2022/01/09 14:22:36;;;;;;;;;49.75;38.50;;;;;;;;4935959;28;51565;-53
2022/01/09 14:25:28;;;;;;;;;41.00;31.75;;;;;;;;4892258;28;51116;-45
2022/01/09 14:28:14;;;;;;;;;43.75;34.50;;;;;;;;4941369;28;51653;-47
2022/01/09 14:31:05;;;;;;;;;49.25;36.25;;;;;;;;4941500;28;51104;-46
2022/01/09 14:33:51;;;;;;;;;42.25;34.50;;;;;;;;4959184;28;51184;-46
2022/01/09 14:36:35;;;;;;;;;38.75;33.00;;;;;;;;4961045;28;51077;-52
2022/01/09 14:39:24;;;;;;;;;44.75;35.50;;;;;;;;4961434;28;51481;-43
2022/01/09 14:42:10;;;;;;;;;41.50;32.75;;;;;;;;4960989;28;51189;-52
2022/01/09 14:44:54;;;;;;;;;47.00;34.75;;;;;;;;4961184;28;51128;-48
2022/01/09 14:47:38;;;;;;;;;40.75;33.00;;;;;;;;4960754;28;51137;-51
2022/01/09 14:50:23;;;;;;;;;38.25;30.00;;;;;;;;4960924;28;51484;-44
2022/01/09 14:53:07;;;;;;;;;44.50;30.25;;;;;;;;4960735;28;51678;-47
2022/01/09 14:55:52;;;;;;;;;41.50;31.75;;;;;;;;4960516;28;51100;-47
2022/01/09 14:58:37;;;;;;;;;31.50;27.75;;;;;;;;4960552;28;50993;-49
2022/01/09 15:01:21;;;;;;;;;41.50;33.75;;;;;;;;4960855;28;51194;-49
2022/01/09 15:04:05;;;;;;;;;39.75;32.00;;;;;;;;4959819;28;52182;-45
2022/01/09 15:06:52;;;;;;;;;37.50;31.75;;;;;;;;4959733;28;51773;-51
2022/01/09 15:09:36;;;;;;;;;41.75;32.00;;;;;;;;4959055;28;51114;-46
2022/01/09 15:12:21;;;;;;;;;39.25;32.00;;;;;;;;4960660;28;51117;-45
2022/01/09 15:15:06;;;;;;;;;41.00;34.00;;;;;;;;4959709;28;51393;-45
2022/01/09 15:17:50;;;;;;;;;38.25;32.75;;;;;;;;4960198;28;51591;-43
2022/01/09 15:20:35;;;;;;;;;34.00;29.25;;;;;;;;4959171;28;51104;-50
2022/01/09 15:23:19;;;;;;;;;44.25;32.25;;;;;;;;4959633;28;51233;-44
2022/01/09 15:26:03;;;;;;;;;46.25;35.00;;;;;;;;4959712;28;51100;-47
2022/01/09 15:28:48;;;;;;;;;38.00;29.75;;;;;;;;4959973;28;51470;-51
2022/01/09 15:31:32;;;;;;;;;46.00;34.75;;;;;;;;4960315;28;53205;-50
2022/01/09 15:34:16;;;;;;;;;41.25;32.75;;;;;;;;4959947;28;51177;-46
2022/01/09 15:37:02;;;;;;;;;43.75;32.50;;;;;;;;4960724;28;52827;-49
2022/01/09 15:39:46;;;;;;;;;38.00;31.75;;;;;;;;4958587;28;51565;-52
2022/01/09 15:42:31;;;;;;;;;45.75;33.00;;;;;;;;4959279;28;51690;-48
2022/01/09 15:45:15;;;;;;;;;42.75;33.50;;;;;;;;4959846;28;51136;-48
2022/01/09 15:48:00;;;;;;;;;36.00;31.50;;;;;;;;4959480;28;51157;-45
2022/01/09 15:50:44;;;;;;;;;44.00;34.00;;;;;;;;4959631;28;51459;-47
2022/01/09 15:53:28;;;;;;;;;40.75;31.75;;;;;;;;4960106;28;51107;-51
2022/01/09 15:56:13;;;;;;;;;42.25;32.25;;;;;;;;4960137;28;51078;-46
2022/01/09 15:58:58;;;;;;;;;39.75;30.50;;;;;;;;4959488;28;53363;-50
2022/01/09 16:01:44;;;;;;;;;37.25;29.50;;;;;;;;4959982;28;51268;-46
2022/01/09 16:04:28;;;;;;;;;42.75;32.25;;;;;;;;4959803;28;51545;-48
2022/01/09 16:07:13;;;;;;;;;41.50;32.25;;;;;;;;4958065;28;51148;-49
2022/01/09 16:09:57;;;;;;;;;44.25;33.75;;;;;;;;4959382;28;51050;-49
2022/01/09 16:12:47;;;;;;;;;42.25;33.75;;;;;;;;4959874;28;51149;-46